createdAt,value
2018-07-01T00:01:06.844Z,0.53
2018-07-01T00:03:35.881Z,0.87
2018-07-01T00:06:05.139Z,0.50
2018-07-01T00:08:34.323Z,0.43
2018-07-01T00:11:03.394Z,0.90
2018-07-01T00:13:32.540Z,0.60
2018-07-01T00:16:01.624Z,0.43
2018-07-01T00:18:30.706Z,0.40
2018-07-01T00:20:59.397Z,0.73
2018-07-01T00:23:28.360Z,0.40
2018-07-01T00:25:57.421Z,0.40
2018-07-01T00:28:26.656Z,0.60
2018-07-01T00:30:55.923Z,0.60
2018-07-01T00:33:25.504Z,0.60
2018-07-01T00:35:54.865Z,0.53
2018-07-01T00:38:23.949Z,0.50
2018-07-01T00:40:53.352Z,0.50
2018-07-01T00:43:22.527Z,0.57
2018-07-01T00:45:51.603Z,0.40
2018-07-01T00:48:20.683Z,0.50
2018-07-01T00:50:49.843Z,0.67
2018-07-01T00:53:18.928Z,0.77
2018-07-01T00:55:48.046Z,0.80
2018-07-01T00:58:17.147Z,0.50
2018-07-01T01:00:46.194Z,0.60
2018-07-01T01:03:15.238Z,0.60
2018-07-01T01:05:44.306Z,0.60
2018-07-01T01:08:13.395Z,0.67
2018-07-01T01:10:42.642Z,0.60
2018-07-01T01:13:11.705Z,0.47
2018-07-01T01:15:40.799Z,0.60
2018-07-01T01:18:09.558Z,0.50
2018-07-01T01:20:38.684Z,0.60
2018-07-01T01:23:07.720Z,0.50
2018-07-01T01:25:36.813Z,0.77
2018-07-01T01:28:05.917Z,0.60
2018-07-01T01:30:34.991Z,0.60
2018-07-01T01:33:04.095Z,0.67
2018-07-01T01:35:33.209Z,0.50
2018-07-01T01:38:02.287Z,0.90
2018-07-01T01:40:46.039Z,0.70
2018-07-01T01:43:22.666Z,0.50
2018-07-01T01:45:59.894Z,0.70
2018-07-01T01:48:36.573Z,0.70
2018-07-01T01:51:11.793Z,0.77
2018-07-01T01:53:48.145Z,0.77
2018-07-01T01:56:21.605Z,0.60
2018-07-01T01:58:54.255Z,0.60
2018-07-01T02:01:33.483Z,0.70
2018-07-01T02:04:07.120Z,0.60
2018-07-01T02:06:41.337Z,0.70
2018-07-01T02:09:13.644Z,0.80
2018-07-01T02:11:46.139Z,1.20
2018-07-01T02:14:20.142Z,0.77
2018-07-01T02:16:52.426Z,0.67
2018-07-01T02:19:21.633Z,0.60
2018-07-01T02:21:51.660Z,0.67
2018-07-01T02:24:28.121Z,0.83
2018-07-01T02:26:57.168Z,1.00
2018-07-01T02:29:26.390Z,0.80
2018-07-01T02:31:55.496Z,0.93
2018-07-01T02:34:24.586Z,0.80
2018-07-01T02:36:54.224Z,0.60
2018-07-01T02:39:23.353Z,0.70
2018-07-01T02:41:52.451Z,0.63
2018-07-01T02:44:21.635Z,0.60
2018-07-01T02:46:50.742Z,1.03
2018-07-01T02:49:19.903Z,0.70
2018-07-01T02:51:49.059Z,0.83
2018-07-01T02:54:18.398Z,0.70
2018-07-01T02:56:47.565Z,0.70
2018-07-01T02:59:16.663Z,1.20
2018-07-01T03:01:45.760Z,0.70
2018-07-01T03:04:14.886Z,0.80
2018-07-01T03:06:44.001Z,0.90
2018-07-01T03:09:14.205Z,1.00
2018-07-01T03:11:43.303Z,0.90
2018-07-01T03:14:12.447Z,0.60
2018-07-01T03:16:41.570Z,0.70
2018-07-01T03:19:11.300Z,0.80
2018-07-01T03:21:41.212Z,0.70
2018-07-01T03:24:10.288Z,0.80
2018-07-01T03:26:39.426Z,0.77
2018-07-01T03:29:08.564Z,0.80
2018-07-01T03:31:38.284Z,0.73
2018-07-01T03:34:07.305Z,0.60
2018-07-01T03:36:36.349Z,0.80
2018-07-01T03:39:08.236Z,0.70
2018-07-01T03:41:37.333Z,0.90
2018-07-01T03:44:06.695Z,1.00
2018-07-01T03:46:36.168Z,1.30
2018-07-01T03:49:05.448Z,0.70
2018-07-01T03:51:34.602Z,0.70
2018-07-01T03:54:03.716Z,0.80
2018-07-01T03:56:32.819Z,0.67
2018-07-01T03:59:01.951Z,0.60
2018-07-01T04:01:31.282Z,0.80
2018-07-01T04:04:00.411Z,0.60
2018-07-01T04:06:30.138Z,0.60
2018-07-01T04:08:59.408Z,0.53
2018-07-01T04:11:28.593Z,0.77
2018-07-01T04:13:57.705Z,0.53
2018-07-01T04:16:26.724Z,0.70
2018-07-01T04:18:55.839Z,0.70
2018-07-01T04:21:24.886Z,0.60
2018-07-01T04:23:53.920Z,0.40
2018-07-01T04:26:23.013Z,0.70
2018-07-01T04:28:52.284Z,0.60
2018-07-01T04:31:21.320Z,0.87
2018-07-01T04:33:50.406Z,0.50
2018-07-01T04:36:19.487Z,0.50
2018-07-01T04:38:48.745Z,0.50
2018-07-01T04:41:17.502Z,0.40
2018-07-01T04:43:46.814Z,0.50
2018-07-01T04:46:15.989Z,0.60
2018-07-01T04:48:45.094Z,0.53
2018-07-01T04:51:14.232Z,0.43
2018-07-01T04:53:43.383Z,0.40
2018-07-01T04:56:12.577Z,0.50
2018-07-01T04:58:41.725Z,0.50
2018-07-01T05:01:10.840Z,1.00
2018-07-01T05:03:39.951Z,0.43
2018-07-01T05:06:08.669Z,0.50
2018-07-01T05:08:37.804Z,0.40
2018-07-01T05:11:07.606Z,0.40
2018-07-01T05:13:37.153Z,0.57
2018-07-01T05:16:07.265Z,0.50
2018-07-01T05:18:36.379Z,0.30
2018-07-01T05:21:05.163Z,0.40
2018-07-01T05:23:34.282Z,0.50
2018-07-01T05:26:03.434Z,0.57
2018-07-01T05:28:32.612Z,0.57
2018-07-01T05:31:01.770Z,0.40
2018-07-01T05:33:30.890Z,0.50
2018-07-01T05:36:00.025Z,0.70
2018-07-01T05:38:29.887Z,0.40
2018-07-01T05:40:58.991Z,0.50
2018-07-01T05:43:27.769Z,0.50
2018-07-01T05:45:56.887Z,0.60
2018-07-01T05:48:25.960Z,0.50
2018-07-01T05:50:55.018Z,0.60
2018-07-01T05:53:24.094Z,0.60
2018-07-01T05:55:53.256Z,0.60
2018-07-01T05:58:22.376Z,0.60
2018-07-01T06:00:51.582Z,0.60
2018-07-01T06:03:21.361Z,0.50
2018-07-01T06:05:50.455Z,0.50
2018-07-01T06:08:19.721Z,0.50
2018-07-01T06:10:48.927Z,0.33
2018-07-01T06:13:18.283Z,0.60
2018-07-01T06:15:47.433Z,0.70
2018-07-01T06:18:16.600Z,0.80
2018-07-01T06:20:45.348Z,0.60
2018-07-01T06:23:14.411Z,0.50
2018-07-01T06:25:43.473Z,0.47
2018-07-01T06:28:12.655Z,0.40
2018-07-01T06:30:41.889Z,0.50
2018-07-01T06:33:11.859Z,0.43
2018-07-01T06:35:40.943Z,0.70
2018-07-01T06:38:10.061Z,0.60
2018-07-01T06:40:39.226Z,0.37
2018-07-01T06:43:08.570Z,0.40
2018-07-01T06:45:37.887Z,0.30
2018-07-01T06:48:07.453Z,0.50
2018-07-01T06:50:36.881Z,0.50
2018-07-01T06:53:06.451Z,0.47
2018-07-01T06:55:35.557Z,0.40
2018-07-01T06:58:05.868Z,0.43
2018-07-01T07:00:34.996Z,0.40
2018-07-01T07:03:04.243Z,0.30
2018-07-01T07:05:33.374Z,0.50
2018-07-01T07:08:02.499Z,0.40
2018-07-01T07:10:31.601Z,0.40
2018-07-01T07:13:00.725Z,0.33
2018-07-01T07:15:29.824Z,0.30
2018-07-01T07:17:58.865Z,0.20
2018-07-01T07:20:27.915Z,0.30
2018-07-01T07:22:57.220Z,0.30
2018-07-01T07:25:26.333Z,0.30
2018-07-01T07:27:55.503Z,0.30
2018-07-01T07:30:24.781Z,0.20
2018-07-01T07:32:54.837Z,0.10
2018-07-01T07:35:23.994Z,0.20
2018-07-01T07:37:53.064Z,0.20
2018-07-01T07:40:22.122Z,0.20
2018-07-01T07:42:51.185Z,0.37
2018-07-01T07:45:20.006Z,0.20
2018-07-01T07:47:49.733Z,0.30
2018-07-01T07:50:18.892Z,0.20
2018-07-01T07:52:48.067Z,0.20
2018-07-01T07:55:17.241Z,0.30
2018-07-01T07:57:46.381Z,0.20
2018-07-01T08:00:15.579Z,0.30
2018-07-01T08:02:44.404Z,0.30
2018-07-01T08:05:13.555Z,0.30
2018-07-01T08:07:42.323Z,0.27
2018-07-01T08:10:12.635Z,0.30
2018-07-01T08:12:41.777Z,0.20
2018-07-01T08:15:10.980Z,0.20
2018-07-01T08:17:40.074Z,0.10
2018-07-01T08:20:09.189Z,0.20
2018-07-01T08:22:38.543Z,0.13
2018-07-01T08:25:07.698Z,0.10
2018-07-01T08:27:36.866Z,0.17
2018-07-01T08:30:06.356Z,0.20
2018-07-01T08:32:35.484Z,0.17
2018-07-01T08:35:04.619Z,0.37
2018-07-01T08:37:33.697Z,0.20
2018-07-01T08:40:02.847Z,0.20
2018-07-01T08:42:33.226Z,0.90
2018-07-01T08:45:04.580Z,0.37
2018-07-01T08:47:34.193Z,0.57
2018-07-01T08:50:04.039Z,0.63
2018-07-01T08:52:33.263Z,0.30
2018-07-01T08:55:03.047Z,0.30
2018-07-01T08:57:32.990Z,0.27
2018-07-01T09:00:02.394Z,0.30
2018-07-01T09:02:32.414Z,0.20
2018-07-01T09:05:01.633Z,0.30
2018-07-01T09:07:30.773Z,0.20
2018-07-01T09:09:59.844Z,0.20
2018-07-01T09:12:29.548Z,0.30
2018-07-01T09:15:07.156Z,0.20
2018-07-01T09:17:36.317Z,0.20
2018-07-01T09:20:05.467Z,0.40
2018-07-01T09:22:34.561Z,0.40
2018-07-01T09:25:05.858Z,0.10
2018-07-01T09:27:35.009Z,0.30
2018-07-01T09:30:05.722Z,0.43
2018-07-01T09:32:34.961Z,0.20
2018-07-01T09:35:04.093Z,0.50
2018-07-01T09:37:33.310Z,0.20
2018-07-01T09:40:02.971Z,0.30
2018-07-01T09:42:32.680Z,0.57
2018-07-01T09:45:01.769Z,0.50
2018-07-01T09:47:32.423Z,0.20
2018-07-01T09:50:03.742Z,0.40
2018-07-01T09:52:32.969Z,0.47
2018-07-01T09:55:02.123Z,0.23
2018-07-01T09:57:31.448Z,0.30
2018-07-01T10:00:00.723Z,0.30
2018-07-01T10:02:29.903Z,0.40
2018-07-01T10:04:59.030Z,0.30
2018-07-01T10:07:28.146Z,0.30
2018-07-01T10:09:57.377Z,0.30
2018-07-01T10:12:26.595Z,0.40
2018-07-01T10:14:55.423Z,0.30
2018-07-01T10:17:24.518Z,0.40
2018-07-01T10:19:53.703Z,0.20
2018-07-01T10:22:23.332Z,0.30
2018-07-01T10:24:52.504Z,0.20
2018-07-01T10:27:21.705Z,0.60
2018-07-01T10:29:50.827Z,0.50
2018-07-01T10:32:19.874Z,0.30
2018-07-01T10:34:49.198Z,0.30
2018-07-01T10:37:18.366Z,0.30
2018-07-01T10:39:47.514Z,0.40
2018-07-01T10:42:16.654Z,0.60
2018-07-01T10:44:46.106Z,0.67
2018-07-01T10:47:15.212Z,0.43
2018-07-01T10:49:44.084Z,0.40
2018-07-01T10:52:13.282Z,0.30
2018-07-01T10:54:43.077Z,0.57
2018-07-01T10:57:13.180Z,0.37
2018-07-01T10:59:42.344Z,0.50
2018-07-01T11:02:11.511Z,0.40
2018-07-01T11:04:41.692Z,0.40
2018-07-01T11:07:10.836Z,0.30
2018-07-01T11:09:40.081Z,0.30
2018-07-01T11:12:08.827Z,0.43
2018-07-01T11:14:38.367Z,0.40
2018-07-01T11:17:08.370Z,0.20
2018-07-01T11:19:37.552Z,0.40
2018-07-01T11:22:06.679Z,0.30
2018-07-01T11:24:36.016Z,0.40
2018-07-01T11:27:05.872Z,0.40
2018-07-01T11:29:34.654Z,0.30
2018-07-01T11:32:03.715Z,0.33
2018-07-01T11:34:33.019Z,0.27
2018-07-01T11:37:02.645Z,0.60
2018-07-01T11:39:31.676Z,0.33
2018-07-01T11:42:00.902Z,0.50
2018-07-01T11:44:30.124Z,0.27
2018-07-01T11:46:59.309Z,0.30
2018-07-01T11:49:28.525Z,0.37
2018-07-01T11:51:57.920Z,0.37
2018-07-01T11:54:27.523Z,0.20
2018-07-01T11:56:57.049Z,0.30
2018-07-01T11:59:26.124Z,0.40
2018-07-01T12:01:55.506Z,0.40
2018-07-01T12:04:25.448Z,0.30
2018-07-01T12:06:55.644Z,0.40
2018-07-01T12:09:25.807Z,0.40
2018-07-01T12:11:55.747Z,0.30
2018-07-01T12:14:25.198Z,0.20
2018-07-01T12:16:54.864Z,0.20
2018-07-01T12:19:25.142Z,0.30
2018-07-01T12:21:55.696Z,0.30
2018-07-01T12:24:25.394Z,0.20
2018-07-01T12:26:55.528Z,0.23
2018-07-01T12:29:25.554Z,0.40
2018-07-01T12:31:54.973Z,0.50
2018-07-01T12:34:24.336Z,0.43
2018-07-01T12:36:54.452Z,0.30
2018-07-01T12:39:24.836Z,0.30
2018-07-01T12:41:54.087Z,0.30
2018-07-01T12:44:23.297Z,0.40
2018-07-01T12:46:52.582Z,0.30
2018-07-01T12:49:21.865Z,0.40
2018-07-01T12:51:51.122Z,0.50
2018-07-01T12:54:20.343Z,0.40
2018-07-01T12:56:49.127Z,0.20
2018-07-01T12:59:18.269Z,0.37
2018-07-01T13:01:47.490Z,0.30
2018-07-01T13:04:16.721Z,0.13
2018-07-01T13:06:46.421Z,0.30
2018-07-01T13:09:15.747Z,0.20
2018-07-01T13:11:44.984Z,0.40
2018-07-01T13:14:14.183Z,0.30
2018-07-01T13:16:43.899Z,0.30
2018-07-01T13:19:13.414Z,0.30
2018-07-01T13:21:43.833Z,0.60
2018-07-01T13:24:14.247Z,0.60
2018-07-01T13:26:44.118Z,0.40
2018-07-01T13:29:13.309Z,0.23
2018-07-01T13:31:42.569Z,0.50
2018-07-01T13:34:11.890Z,0.50
2018-07-01T13:36:41.106Z,0.33
2018-07-01T13:39:11.706Z,0.30
2018-07-01T13:41:40.907Z,0.53
2018-07-01T13:44:10.280Z,0.30
2018-07-01T13:46:40.253Z,0.50
2018-07-01T13:49:09.345Z,0.57
2018-07-01T13:51:38.760Z,0.30
2018-07-01T13:54:07.938Z,0.33
2018-07-01T13:56:37.177Z,0.20
2018-07-01T13:59:06.419Z,0.23
2018-07-01T14:01:35.704Z,0.40
2018-07-01T14:04:05.349Z,0.30
2018-07-01T14:06:34.515Z,0.20
2018-07-01T14:09:04.736Z,0.30
2018-07-01T14:11:34.456Z,0.30
2018-07-01T14:14:04.196Z,0.30
2018-07-01T14:16:33.841Z,0.33
2018-07-01T14:19:03.379Z,0.43
2018-07-01T14:21:32.600Z,0.40
2018-07-01T14:24:01.853Z,0.40
2018-07-01T14:26:31.018Z,0.60
2018-07-01T14:29:01.324Z,0.20
2018-07-01T14:31:30.507Z,0.43
2018-07-01T14:34:00.372Z,0.23
2018-07-01T14:36:29.689Z,0.40
2018-07-01T14:38:58.974Z,0.30
2018-07-01T14:41:27.754Z,0.50
2018-07-01T14:43:56.566Z,0.40
2018-07-01T14:46:25.673Z,0.27
2018-07-01T14:48:54.601Z,0.30
2018-07-01T14:51:24.809Z,0.43
2018-07-01T14:53:54.048Z,0.40
2018-07-01T14:56:23.288Z,0.40
2018-07-01T14:58:52.561Z,0.20
2018-07-01T15:01:21.942Z,0.50
2018-07-01T15:03:51.750Z,0.50
2018-07-01T15:06:21.449Z,0.30
2018-07-01T15:08:50.902Z,0.37
2018-07-01T15:11:20.979Z,0.37
2018-07-01T15:13:50.193Z,0.40
2018-07-01T15:16:19.562Z,0.60
2018-07-01T15:18:48.751Z,0.40
2018-07-01T15:21:17.631Z,0.40
2018-07-01T15:23:46.714Z,0.70
2018-07-01T15:26:15.908Z,0.60
2018-07-01T15:28:45.072Z,0.37
2018-07-01T15:31:14.187Z,0.37
2018-07-01T15:33:43.421Z,0.20
2018-07-01T15:36:13.313Z,0.40
2018-07-01T15:38:42.944Z,0.30
2018-07-01T15:41:12.117Z,0.30
2018-07-01T15:43:41.724Z,0.37
2018-07-01T15:46:11.226Z,0.50
2018-07-01T15:48:40.380Z,0.57
2018-07-01T15:51:09.474Z,0.40
2018-07-01T15:53:38.626Z,0.47
2018-07-01T15:56:08.504Z,0.40
2018-07-01T15:58:37.836Z,0.30
2018-07-01T16:01:07.124Z,0.30
2018-07-01T16:03:36.213Z,0.70
2018-07-01T16:06:05.628Z,0.40
2018-07-01T16:08:35.251Z,0.30
2018-07-01T16:11:04.597Z,0.27
2018-07-01T16:13:33.831Z,0.40
2018-07-01T16:16:03.012Z,0.40
2018-07-01T16:18:32.092Z,0.40
2018-07-01T16:21:01.758Z,0.40
2018-07-01T16:23:31.086Z,0.30
2018-07-01T16:26:05.570Z,0.60
2018-07-01T16:28:40.741Z,0.70
2018-07-01T16:31:10.060Z,0.50
2018-07-01T16:33:39.149Z,0.57
2018-07-01T16:36:08.914Z,0.40
2018-07-01T16:38:37.999Z,0.47
2018-07-01T16:41:12.509Z,0.30
2018-07-01T16:43:41.678Z,0.40
2018-07-01T16:46:10.829Z,0.40
2018-07-01T16:48:39.913Z,0.53
2018-07-01T16:51:09.094Z,0.53
2018-07-01T16:53:38.642Z,0.73
2018-07-01T16:56:07.798Z,0.40
2018-07-01T16:58:36.948Z,0.40
2018-07-01T17:01:06.333Z,0.40
2018-07-01T17:03:35.476Z,0.53
2018-07-01T17:06:04.776Z,0.40
2018-07-01T17:08:34.064Z,0.60
2018-07-01T17:11:03.310Z,0.53
2018-07-01T17:13:32.496Z,0.30
2018-07-01T17:16:02.428Z,0.77
2018-07-01T17:18:35.988Z,0.68
2018-07-01T17:21:08.320Z,0.53
2018-07-01T17:23:43.057Z,0.50
2018-07-01T17:26:21.382Z,0.50
2018-07-01T17:28:57.789Z,0.40
2018-07-01T17:31:37.864Z,0.40
2018-07-01T17:34:07.159Z,0.20
2018-07-01T17:36:36.331Z,0.40
2018-07-01T17:39:09.712Z,0.30
2018-07-01T17:41:41.098Z,0.50
2018-07-01T17:44:12.858Z,0.30
2018-07-01T17:46:43.774Z,0.57
2018-07-01T17:52:48.417Z,0.50
2018-07-01T17:55:45.207Z,0.40
2018-07-01T17:58:16.978Z,0.47
2018-07-01T18:00:47.964Z,0.40
2018-07-01T18:03:17.752Z,0.30
2018-07-01T18:05:47.009Z,0.50
2018-07-01T18:08:16.792Z,0.60
2018-07-01T18:10:46.902Z,0.50
2018-07-01T18:13:16.565Z,0.77
2018-07-01T18:15:46.497Z,0.40
2018-07-01T18:18:15.639Z,0.40
2018-07-01T18:20:45.447Z,0.50
2018-07-01T18:23:44.891Z,0.37
2018-07-01T18:25:44.113Z,0.40
2018-07-01T18:28:26.506Z,0.50
2018-07-01T18:30:43.222Z,0.43
2018-07-01T18:33:13.333Z,0.30
2018-07-01T18:35:42.633Z,0.70
2018-07-01T18:38:12.846Z,0.40
2018-07-01T18:40:42.026Z,0.50
2018-07-01T18:43:11.296Z,0.30
2018-07-01T18:45:41.134Z,0.60
2018-07-01T18:48:10.347Z,0.43
2018-07-01T18:50:40.203Z,0.50
2018-07-01T18:53:13.306Z,0.27
2018-07-01T18:55:47.533Z,0.37
2018-07-01T18:58:20.372Z,0.30
2018-07-01T19:00:52.945Z,0.40
2018-07-01T19:03:24.868Z,0.50
2018-07-01T19:05:57.345Z,0.70
2018-07-01T19:08:27.916Z,0.47
2018-07-01T19:10:59.784Z,0.33
2018-07-01T19:13:32.145Z,0.40
2018-07-01T19:16:04.490Z,0.40
2018-07-01T19:18:36.566Z,0.50
2018-07-01T19:21:10.422Z,0.70
2018-07-01T19:23:41.334Z,0.47
2018-07-01T19:26:13.204Z,0.40
2018-07-01T19:28:44.275Z,0.90
2018-07-01T19:31:18.663Z,0.50
2018-07-01T19:34:33.043Z,0.40
2018-07-01T19:37:05.374Z,0.70
2018-07-01T19:39:37.224Z,0.47
2018-07-01T19:42:08.315Z,0.73
2018-07-01T19:44:41.081Z,0.70
2018-07-01T19:47:17.621Z,0.60
2018-07-01T19:49:57.382Z,0.50
2018-07-01T19:52:28.623Z,0.50
2018-07-01T19:55:03.901Z,0.40
2018-07-01T19:57:45.065Z,0.70
2018-07-01T20:00:20.899Z,0.30
2018-07-01T20:02:59.816Z,0.77
2018-07-01T20:05:38.440Z,0.53
2018-07-01T20:08:08.483Z,0.50
2018-07-01T20:10:37.856Z,0.50
2018-07-01T20:13:07.765Z,0.60
2018-07-01T20:15:36.948Z,0.67
2018-07-01T20:18:06.150Z,0.70
2018-07-01T20:20:35.393Z,0.53
2018-07-01T20:23:04.716Z,0.50
2018-07-01T20:25:33.857Z,0.50
2018-07-01T20:28:02.902Z,0.40
2018-07-01T20:30:31.988Z,0.40
2018-07-01T20:33:01.206Z,0.50
2018-07-01T20:35:30.243Z,0.40
2018-07-01T20:37:59.019Z,0.40
2018-07-01T20:40:27.792Z,0.60
2018-07-01T20:42:56.854Z,0.80
2018-07-01T20:45:25.932Z,0.50
2018-07-01T20:47:54.985Z,0.63
2018-07-01T20:50:24.198Z,0.63
2018-07-01T20:52:53.287Z,0.87
2018-07-01T20:55:22.391Z,0.70
2018-07-01T20:57:51.553Z,1.00
2018-07-01T21:00:20.747Z,0.57
2018-07-01T21:02:49.950Z,0.70
2018-07-01T21:05:19.090Z,0.50
2018-07-01T21:07:48.182Z,0.50
2018-07-01T21:10:17.341Z,0.30
2018-07-01T21:12:46.582Z,0.50
2018-07-01T21:15:15.658Z,0.47
2018-07-01T21:17:44.834Z,0.40
2018-07-01T21:20:13.929Z,0.50
2018-07-01T21:22:42.987Z,0.70
2018-07-01T21:25:12.072Z,0.43
2018-07-01T21:27:41.307Z,0.40
2018-07-01T21:30:10.382Z,0.40
2018-07-01T21:32:39.581Z,0.20
2018-07-01T21:35:09.418Z,0.50
2018-07-01T21:37:38.669Z,0.53
2018-07-01T21:40:08.479Z,0.57
2018-07-01T21:42:37.796Z,0.50
2018-07-01T21:45:07.861Z,0.40
2018-07-01T21:47:37.153Z,0.50
2018-07-01T21:50:06.645Z,0.67
2018-07-01T21:52:35.835Z,0.70
2018-07-01T21:55:05.550Z,0.60
2018-07-01T21:57:34.668Z,0.40
2018-07-01T22:00:03.864Z,0.40
2018-07-01T22:02:32.979Z,0.30
2018-07-01T22:05:02.068Z,0.33
2018-07-01T22:07:31.170Z,0.70
2018-07-01T22:10:00.289Z,0.47
2018-07-01T22:12:40.496Z,0.40
2018-07-01T22:15:26.190Z,0.37
2018-07-01T22:17:56.334Z,0.60
2018-07-01T22:20:25.908Z,0.40
2018-07-01T22:22:54.998Z,0.60
2018-07-01T22:25:24.181Z,0.43
2018-07-01T22:27:53.456Z,0.53
2018-07-01T22:30:22.547Z,0.40
2018-07-01T22:32:51.701Z,0.47
2018-07-01T22:35:20.867Z,0.57
2018-07-01T22:37:49.935Z,0.37
2018-07-01T22:40:19.006Z,0.40
2018-07-01T22:42:48.220Z,0.37
2018-07-01T22:45:17.392Z,0.40
2018-07-01T22:47:46.447Z,0.30
2018-07-01T22:50:15.602Z,0.60
2018-07-01T22:52:44.652Z,0.30
2018-07-01T22:55:13.389Z,0.30
2018-07-01T22:57:42.365Z,0.40
2018-07-01T23:00:12.541Z,0.50
2018-07-01T23:02:54.305Z,1.17
2018-07-01T23:05:24.511Z,0.90
2018-07-01T23:07:53.930Z,0.90
2018-07-01T23:10:24.170Z,1.00
2018-07-01T23:12:54.069Z,1.03
2018-07-01T23:15:23.184Z,1.20
2018-07-01T23:17:52.462Z,1.30
2018-07-01T23:20:21.553Z,0.50
2018-07-01T23:22:50.771Z,0.57
2018-07-01T23:25:19.818Z,0.30
2018-07-01T23:27:49.171Z,0.50
2018-07-01T23:30:18.362Z,0.50
2018-07-01T23:32:47.554Z,0.67
2018-07-01T23:35:16.668Z,0.63
2018-07-01T23:37:45.892Z,0.47
2018-07-01T23:40:16.046Z,0.67
2018-07-01T23:42:45.235Z,0.40
2018-07-01T23:45:15.632Z,0.50
2018-07-01T23:47:44.986Z,0.60
2018-07-01T23:50:13.709Z,0.30
2018-07-01T23:52:42.741Z,0.50
2018-07-01T23:55:11.882Z,0.50
2018-07-01T23:57:41.037Z,0.33
